Time;durP1;ratioP1;P1;durP2;ratioP2;P2;SDS_P1;SDS_P2;PMS_P1;PMS_P2;Temp;Humidity;BMP_temperature;BMP_pressure;BME280_temperature;BME280_humidity;BME280_pressure;Samples;Min_cycle;Max_cycle;Signal;HPM_P1;HPM_P2
2021/06/09 00:00:03;;;;;;;8.05;6.80;;;;;;;15.46;58.66;98935.72;262934;1086;25804;-71
2021/06/09 00:19:42;;;;;;;;;;;;;;;;;;;;;
2021/06/09 00:26:22;;;;;;;;;;;;;;;;;;;;;
2021/06/09 00:33:25;;;;;;;;;;;;;;;;;;;;;
2021/06/09 00:39:49;;;;;;;;;;;;;;;;;;;;;
2021/06/09 00:53:47;;;;;;;;;;;;;;;;;;;;;
2021/06/09 01:06:50;;;;;;;11.47;8.37;;;;;;;14.84;61.70;98923.20;262794;1087;22932;-71
2021/06/09 01:13:29;;;;;;;8.10;7.00;;;;;;;14.78;62.36;98921.77;262945;1087;25925;-71
2021/06/09 01:20:15;;;;;;;10.50;8.20;;;;;;;14.59;63.05;98920.09;262975;1087;22860;-72
2021/06/09 01:27:16;;;;;;;;;;;;;;;;;;;;;
2021/06/09 01:34:05;;;;;;;;;;;;;;;;;;;;;
2021/06/09 01:40:45;;;;;;;8.63;7.43;;;;;;;14.11;65.12;98926.97;262900;1087;22817;-69
2021/06/09 01:47:09;;;;;;;10.55;8.65;;;;;;;13.97;65.69;98931.64;262777;1087;26229;-72
2021/06/09 01:53:52;;;;;;;;;;;;;;;;;;;;;
2021/06/09 02:00:26;;;;;;;;;;;;;;;;;;;;;
2021/06/09 02:07:21;;;;;;;10.67;8.10;;;;;;;13.54;66.75;98921.34;262956;1085;25948;-71
2021/06/09 02:14:25;;;;;;;10.50;8.35;;;;;;;13.43;67.19;98908.13;262791;1086;25854;-70
2021/06/09 02:21:08;;;;;;;9.47;7.13;;;;;;;13.40;67.48;98908.72;262216;1087;22771;-72
2021/06/09 02:28:01;;;;;;;7.67;6.67;;;;;;;13.33;67.72;98905.62;262932;1087;22773;-71
2021/06/09 02:34:38;;;;;;;10.83;8.77;;;;;;;13.28;67.83;98913.82;262127;1085;22803;-70
2021/06/09 02:41:16;;;;;;;9.40;7.75;;;;;;;13.28;68.47;98909.23;263005;1087;26274;-71
2021/06/09 02:47:45;;;;;;;;;;;;;;;;;;;;;
2021/06/09 02:54:55;;;;;;;8.75;7.90;;;;;;;13.05;68.75;98916.43;262922;1086;22790;-71
2021/06/09 03:01:13;;;;;;;;;;;;;;;;;;;;;
2021/06/09 03:08:25;;;;;;;;;;;;;;;;;;;;;
2021/06/09 03:22:46;;;;;;;;;;;;;;;;;;;;;
2021/06/09 03:30:08;;;;;;;7.63;6.75;;;;;;;14.07;68.55;98925.21;262198;1087;22921;-71
2021/06/09 03:36:46;;;;;;;8.60;6.90;;;;;;;14.81;67.14;98931.93;262492;1087;22776;-71
2021/06/09 03:43:21;;;;;;;7.80;7.00;;;;;;;15.33;66.09;98923.96;262829;1087;24314;-71
2021/06/09 04:11:14;;;;;;;;;;;;;;;;;;;;;
2021/06/09 04:32:15;;;;;;;7.67;6.97;;;;;;;16.57;61.63;98939.69;262536;1087;22814;-71
2021/06/09 04:46:05;;;;;;;8.25;7.55;;;;;;;16.32;62.27;98954.10;262876;1087;26482;-71
2021/06/09 04:52:37;;;;;;;9.70;7.90;;;;;;;16.34;62.95;98951.86;262662;1087;22780;-72
2021/06/09 04:59:08;;;;;;;9.80;8.80;;;;;;;16.37;63.21;98945.83;262926;1087;22811;-71
2021/06/09 05:06:14;;;;;;;10.40;8.25;;;;;;;16.55;63.69;98950.05;262815;1087;22841;-70
2021/06/09 05:12:46;;;;;;;;;;;;;;;;;;;;;
2021/06/09 05:26:40;;;;;;;;;;;;;;;;;;;;;
2021/06/09 05:33:27;;;;;;;;;;;;;;;;;;;;;
2021/06/09 05:39:59;;;;;;;;;;;;;;;;;;;;;
2021/06/09 05:46:43;;;;;;;9.75;8.20;;;;;;;17.88;64.06;98972.52;263353;1085;25826;-70
2021/06/09 06:00:29;;;;;;;;;;;;;;;;;;;;;
2021/06/09 06:21:39;;;;;;;;;;;;;;;;;;;;;
2021/06/09 06:35:56;;;;;;;10.97;8.90;;;;;;;19.62;61.64;98993.36;263056;1087;26953;-71
2021/06/09 06:43:00;;;;;;;11.40;8.95;;;;;;;19.85;61.10;98998.30;263308;1086;22914;-71
2021/06/09 06:49:54;;;;;;;;;;;;;;;;;;;;;
2021/06/09 06:56:45;;;;;;;10.43;9.33;;;;;;;20.33;61.01;99007.41;263633;1087;22789;-71
2021/06/09 07:03:46;;;;;;;10.20;8.28;;;;;;;20.56;60.16;99002.16;263478;1087;22852;-69
2021/06/09 07:10:25;;;;;;;8.88;7.98;;;;;;;20.74;58.94;99005.38;263955;1087;22804;-72
2021/06/09 07:24:00;;;;;;;;;;;;;;;;;;;;;
2021/06/09 07:30:42;;;;;;;9.78;6.90;;;;;;;21.48;57.79;99003.98;263377;1085;22790;-73
2021/06/09 07:37:46;;;;;;;8.75;7.20;;;;;;;21.72;56.94;98999.45;263532;1087;22792;-73
2021/06/09 07:44:39;;;;;;;8.63;7.73;;;;;;;21.96;56.54;98996.43;263323;1085;22910;-73
2021/06/09 07:51:28;;;;;;;9.90;5.93;;;;;;;22.30;55.73;99006.81;263194;1087;22976;-73
2021/06/09 07:58:32;;;;;;;;;;;;;;;;;;;;;
2021/06/09 08:05:07;;;;;;;6.83;5.88;;;;;;;22.77;54.43;99007.68;263409;1087;22787;-73
2021/06/09 08:18:53;;;;;;;7.30;6.23;;;;;;;22.93;52.93;99007.54;263324;1087;22756;-73
2021/06/09 08:47:03;;;;;;;7.83;7.13;;;;;;;23.21;52.55;99001.75;263233;1087;26268;-73
2021/06/09 08:53:10;;;;;;;9.98;7.23;;;;;;;23.59;51.80;98999.97;263867;1085;22788;-72
2021/06/09 09:12:40;;;;;;;7.45;6.63;;;;;;;24.12;49.03;98995.53;263903;1087;22783;-73
2021/06/09 09:19:12;;;;;;;;;;;;;;;;;;;;;
2021/06/09 09:39:19;;;;;;;11.18;8.90;;;;;;;24.72;48.57;99006.34;263696;1087;22760;-72
2021/06/09 09:46:19;;;;;;;;;;;;;;;;;;;;;
2021/06/09 10:00:13;;;;;;;;;;;;;;;;;;;;;
2021/06/09 10:07:29;;;;;;;;;;;;;;;;;;;;;
2021/06/09 10:14:17;;;;;;;6.78;6.18;;;;;;;25.59;45.38;98998.74;263501;1087;22981;-74
2021/06/09 10:20:55;;;;;;;;;;;;;;;;;;;;;
2021/06/09 10:35:15;;;;;;;;;;;;;;;;;;;;;
2021/06/09 10:56:12;;;;;;;5.90;5.40;;;;;;;25.38;43.09;98985.67;263583;1087;24313;-74
2021/06/09 11:17:14;;;;;;;5.75;5.25;;;;;;;25.75;40.88;98963.52;263471;1087;22710;-74
2021/06/09 11:23:43;;;;;;;7.13;6.53;;;;;;;25.87;40.37;98956.92;263099;1087;22777;-74
2021/06/09 11:30:17;;;;;;;;;;;;;;;;;;;;;
2021/06/09 11:36:50;;;;;;;;;;;;;;;;;;;;;
2021/06/09 11:43:49;;;;;;;5.30;4.90;;;;;;;26.11;38.42;98932.70;263244;1085;22786;-74
2021/06/09 11:51:02;;;;;;;;;;;;;;;;;;;;;
2021/06/09 11:57:57;;;;;;;6.25;5.75;;;;;;;26.60;38.94;98922.15;263256;1087;22937;-74
2021/06/09 12:05:07;;;;;;;;;;;;;;;;;;;;;
2021/06/09 12:24:33;;;;;;;6.30;5.60;;;;;;;26.73;39.51;98919.81;263199;1087;22753;-74
2021/06/09 12:31:27;;;;;;;6.23;5.73;;;;;;;26.66;39.22;98912.32;263332;1087;22761;-73
2021/06/09 12:44:52;;;;;;;;;;;;;;;;;;;;;
2021/06/09 12:51:09;;;;;;;5.50;5.08;;;;;;;26.68;38.74;98893.50;263323;1086;25881;-73
2021/06/09 12:57:55;;;;;;;6.05;5.45;;;;;;;26.63;38.21;98893.88;263285;1087;22844;-71
2021/06/09 13:04:13;;;;;;;5.18;4.73;;;;;;;26.45;38.63;98886.42;263272;1085;24321;-70
2021/06/09 13:10:40;;;;;;;;;;;;;;;;;;;;;
2021/06/09 13:24:03;;;;;;;4.78;4.33;;;;;;;26.53;38.33;98870.73;263016;1087;24358;-70
2021/06/09 13:30:30;;;;;;;5.10;4.63;;;;;;;26.75;38.55;98874.28;263003;1090;23264;-70
2021/06/09 13:37:24;;;;;;;5.30;4.90;;;;;;;26.89;38.19;98880.91;263130;1090;22769;-70
2021/06/09 13:50:46;;;;;;;4.43;4.03;;;;;;;26.95;37.76;98873.84;262969;1088;22764;-70
2021/06/09 13:57:40;;;;;;;5.53;5.13;;;;;;;26.78;37.92;98861.72;261575;1087;22851;-69
2021/06/09 14:04:45;;;;;;;4.60;4.00;;;;;;;26.46;37.91;98846.80;261695;1087;22802;-70
2021/06/09 14:25:34;;;;;;;;;;;;;;;;;;;;;
2021/06/09 14:32:27;;;;;;;;;;;;;;;;;;;;;
2021/06/09 14:46:45;;;;;;;3.40;2.78;;;;;;;25.93;34.83;98842.07;262314;1087;24454;-71
2021/06/09 14:53:18;;;;;;;2.60;2.40;;;;;;;25.78;34.69;98841.26;262074;1085;22921;-71
2021/06/09 15:00:05;;;;;;;2.70;2.50;;;;;;;25.74;34.62;98844.02;262732;1087;22838;-70
2021/06/09 15:06:37;;;;;;;2.55;2.35;;;;;;;25.70;34.49;98840.47;262792;1087;22806;-70
2021/06/09 15:13:03;;;;;;;2.60;2.40;;;;;;;25.67;34.02;98843.20;262776;1087;22869;-70
2021/06/09 15:19:32;;;;;;;2.98;2.00;;;;;;;25.56;33.27;98841.22;262880;1087;22793;-70
2021/06/09 15:26:06;;;;;;;;;;;;;;;;;;;;;
2021/06/09 15:32:30;;;;;;;2.37;2.17;;;;;;;25.50;34.39;98840.02;262765;1087;22753;-70
2021/06/09 15:38:02;;;;;;;3.93;3.63;;;;;;;25.53;33.66;98830.23;262838;1087;22864;-71
2021/06/09 15:44:30;;;;;;;;;;;;;;;;;;;;;
2021/06/09 15:51:23;;;;;;;2.35;2.15;;;;;;;25.43;33.48;98837.25;262288;1087;25989;-70
2021/06/09 15:56:52;;;;;;;2.53;2.15;;;;;;;25.36;33.68;98832.52;262712;1086;22819;-70
2021/06/09 16:03:28;;;;;;;2.53;2.33;;;;;;;25.27;32.79;98830.13;262647;1086;22892;-70
2021/06/09 16:15:43;;;;;;;3.48;1.90;;;;;;;25.13;32.97;98843.78;262816;1086;26280;-71
2021/06/09 16:20:47;;;;;;;2.68;1.93;;;;;;;25.01;32.71;98833.14;262961;1087;26198;-70
2021/06/09 16:26:23;;;;;;;1.95;1.80;;;;;;;24.88;32.66;98838.17;262925;1087;25854;-70
2021/06/09 16:33:02;;;;;;;2.23;1.45;;;;;;;24.80;32.88;98831.08;262836;1087;22776;-70
2021/06/09 16:39:34;;;;;;;;;;;;;;;;;;;;;
2021/06/09 16:45:12;;;;;;;;;;;;;;;;;;;;;
2021/06/09 16:51:28;;;;;;;;;;;;;;;;;;;;;
2021/06/09 17:04:50;;;;;;;1.30;1.20;;;;;;;24.77;32.73;98847.09;262759;1087;26389;-70
2021/06/09 17:11:18;;;;;;;2.78;1.43;;;;;;;26.77;31.97;98849.92;262750;1087;26244;-71
2021/06/09 17:16:54;;;;;;;1.78;1.53;;;;;;;28.80;30.63;98852.28;262807;1087;22760;-70
2021/06/09 17:23:08;;;;;;;1.40;1.23;;;;;;;30.35;29.46;98852.99;262713;1087;22808;-70
2021/06/09 17:35:19;;;;;;;1.75;1.30;;;;;;;31.60;25.27;98860.13;262948;1085;22916;-71
2021/06/09 17:41:15;;;;;;;1.50;1.40;;;;;;;30.36;25.32;98865.58;262805;1087;22749;-74
2021/06/09 17:47:08;;;;;;;1.83;1.23;;;;;;;28.96;25.78;98874.56;262780;1085;22838;-70
2021/06/09 17:52:44;;;;;;;3.03;1.68;;;;;;;27.50;26.87;98872.48;262832;1087;26267;-70
2021/06/09 17:58:17;;;;;;;3.63;1.40;;;;;;;26.12;28.13;98873.86;262788;1087;22757;-70
2021/06/09 18:03:58;;;;;;;;;;;;;;;;;;;;;
2021/06/09 18:17:33;;;;;;;1.40;1.30;;;;;;;23.43;31.63;98868.14;262241;1087;24379;-69
2021/06/09 18:24:07;;;;;;;1.43;1.28;;;;;;;22.84;32.82;98869.30;262838;1087;22908;-70
2021/06/09 18:36:23;;;;;;;1.85;1.40;;;;;;;21.93;34.39;98868.98;262781;1086;22783;-71
2021/06/09 18:55:00;;;;;;;1.60;1.30;;;;;;;20.77;36.89;98875.94;262783;1087;24290;-70
2021/06/09 19:01:48;;;;;;;3.35;1.38;;;;;;;20.49;37.18;98887.70;262811;1085;22847;-71
2021/06/09 19:14:11;;;;;;;3.35;1.60;;;;;;;20.01;38.85;98909.44;263034;1085;23445;-70
2021/06/09 19:19:28;;;;;;;2.40;1.70;;;;;;;19.78;39.13;98909.97;262704;1087;24447;-70
2021/06/09 19:24:32;;;;;;;5.83;1.87;;;;;;;19.57;40.11;98918.32;262974;1087;24337;-70
2021/06/09 19:29:36;;;;;;;2.85;1.75;;;;;;;19.36;40.32;98915.75;262957;1087;22789;-72
2021/06/09 19:34:41;;;;;;;2.95;2.00;;;;;;;19.20;40.94;98925.77;262958;1087;23998;-70
2021/06/09 19:40:47;;;;;;;3.70;2.20;;;;;;;19.04;40.92;98928.38;262983;1087;23144;-73
2021/06/09 19:46:43;;;;;;;2.43;2.10;;;;;;;18.85;41.71;98931.65;262863;1085;22760;-70
2021/06/09 19:51:46;;;;;;;3.90;2.20;;;;;;;18.69;41.97;98935.04;262981;1085;22836;-70
2021/06/09 19:56:50;;;;;;;2.10;1.90;;;;;;;18.55;42.66;98923.70;262966;1087;22912;-69
2021/06/09 20:01:53;;;;;;;4.70;2.40;;;;;;;18.42;42.80;98937.25;263216;1087;23654;-70
2021/06/09 20:06:57;;;;;;;2.60;2.00;;;;;;;18.28;43.27;98931.36;263038;1085;25873;-71
2021/06/09 20:12:51;;;;;;;;;;;;;;;;;;;;;
2021/06/09 20:17:57;;;;;;;2.30;1.80;;;;;;;18.01;44.38;98930.05;262393;1087;22988;-72
2021/06/09 20:23:38;;;;;;;2.20;1.70;;;;;;;17.89;44.92;98941.59;262997;1087;26072;-71
2021/06/09 20:29:21;;;;;;;2.90;1.83;;;;;;;17.78;46.01;98943.91;262920;1086;26275;-71
2021/06/09 20:41:48;;;;;;;;;;;;;;;;;;;;;
2021/06/09 20:47:37;;;;;;;;;;;;;;;;;;;;;
2021/06/09 21:00:07;;;;;;;5.30;3.58;;;;;;;17.08;48.53;98952.53;262796;1085;22767;-72
2021/06/09 21:20:09;;;;;;;7.07;3.43;;;;;;;16.71;49.84;98958.41;262224;1086;22790;-70
2021/06/09 21:32:45;;;;;;;4.03;2.93;;;;;;;16.60;50.88;98957.19;262812;1087;22909;-69
2021/06/09 21:38:49;;;;;;;3.00;2.60;;;;;;;16.52;51.34;98964.23;262830;1087;22951;-69
2021/06/09 21:44:30;;;;;;;5.33;3.10;;;;;;;16.46;52.02;98967.42;262852;1087;26715;-70
2021/06/09 21:56:02;;;;;;;3.85;2.80;;;;;;;16.24;52.51;98972.72;262934;1087;25931;-71
2021/06/09 22:01:27;;;;;;;;;;;;;;;;;;;;;
2021/06/09 22:08:03;;;;;;;;;;;;;;;;;;;;;
2021/06/09 22:14:21;;;;;;;4.55;2.70;;;;;;;15.93;53.59;98967.50;262122;1087;22747;-70
2021/06/09 22:20:11;;;;;;;3.50;2.50;;;;;;;15.95;53.58;98964.48;262680;1086;24445;-71
2021/06/09 22:26:46;;;;;;;3.70;2.90;;;;;;;16.00;53.96;98967.03;262348;1087;22760;-70
2021/06/09 22:39:43;;;;;;;;;;;;;;;;;;;;;
2021/06/09 22:46:41;;;;;;;4.85;2.90;;;;;;;15.65;55.33;98954.28;262180;1085;22900;-70
2021/06/09 22:53:04;;;;;;;5.43;3.80;;;;;;;15.46;56.18;98951.91;262629;1087;27928;-70
2021/06/09 23:05:55;;;;;;;5.60;3.93;;;;;;;15.22;57.53;98957.73;262260;1085;22776;-69
2021/06/09 23:12:49;;;;;;;6.60;3.95;;;;;;;15.16;57.95;98956.30;262179;1087;22769;-69
2021/06/09 23:19:23;;;;;;;6.43;3.97;;;;;;;15.08;58.39;98962.47;262338;1087;22730;-71
2021/06/09 23:25:08;;;;;;;4.95;4.10;;;;;;;14.95;58.74;98961.48;262116;1087;22776;-70
2021/06/09 23:37:49;;;;;;;6.40;3.87;;;;;;;14.75;59.38;98960.16;262822;1086;26260;-71
2021/06/09 23:43:50;;;;;;;;;;;;;;;;;;;;;
2021/06/09 23:49:58;;;;;;;7.00;4.30;;;;;;;14.70;60.38;98958.38;262806;1086;22854;-70
2021/06/09 23:55:41;;;;;;;4.30;3.80;;;;;;;14.61;60.74;98960.22;262786;1087;22798;-72
